sensor_id;sensor_type;location;lat;lon;timestamp;temperature;humidity
68177;DHT22;56478;50.982;7.032;2023-06-22T00:00:54;23.19;64.97
68177;DHT22;56478;50.982;7.032;2023-06-22T00:03:22;23.19;64.87
68177;DHT22;56478;50.982;7.032;2023-06-22T00:05:48;23.14;65.18
68177;DHT22;56478;50.982;7.032;2023-06-22T00:08:15;23.15;66.26
68177;DHT22;56478;50.982;7.032;2023-06-22T00:10:41;23.15;64.63
68177;DHT22;56478;50.982;7.032;2023-06-22T00:13:08;23.12;64.84
68177;DHT22;56478;50.982;7.032;2023-06-22T00:15:34;23.11;65.39
68177;DHT22;56478;50.982;7.032;2023-06-22T00:18:00;23.08;65.92
68177;DHT22;56478;50.982;7.032;2023-06-22T00:20:27;23.06;65.09
68177;DHT22;56478;50.982;7.032;2023-06-22T00:22:57;23.07;66.30
68177;DHT22;56478;50.982;7.032;2023-06-22T00:25:23;23.07;64.58
68177;DHT22;56478;50.982;7.032;2023-06-22T00:27:49;23.04;64.88
68177;DHT22;56478;50.982;7.032;2023-06-22T00:30:16;23.03;65.38
68177;DHT22;56478;50.982;7.032;2023-06-22T00:32:42;22.98;64.91
68177;DHT22;56478;50.982;7.032;2023-06-22T00:35:08;22.97;65.58
68177;DHT22;56478;50.982;7.032;2023-06-22T00:37:34;23.00;65.62
68177;DHT22;56478;50.982;7.032;2023-06-22T00:40:01;23.03;65.50
68177;DHT22;56478;50.982;7.032;2023-06-22T00:42:27;23.03;64.93
68177;DHT22;56478;50.982;7.032;2023-06-22T00:44:53;23.04;64.81
68177;DHT22;56478;50.982;7.032;2023-06-22T00:47:18;23.04;64.78
68177;DHT22;56478;50.982;7.032;2023-06-22T00:49:44;23.01;64.86
68177;DHT22;56478;50.982;7.032;2023-06-22T00:52:12;23.01;65.17
68177;DHT22;56478;50.982;7.032;2023-06-22T00:54:47;22.98;65.48
68177;DHT22;56478;50.982;7.032;2023-06-22T00:57:15;22.98;65.74
68177;DHT22;56478;50.982;7.032;2023-06-22T00:59:47;22.98;65.34
68177;DHT22;56478;50.982;7.032;2023-06-22T01:02:14;22.94;64.72
68177;DHT22;56478;50.982;7.032;2023-06-22T01:04:40;22.98;65.00
68177;DHT22;56478;50.982;7.032;2023-06-22T01:12:44;23.11;64.70
68177;DHT22;56478;50.982;7.032;2023-06-22T01:15:15;23.10;64.99
68177;DHT22;56478;50.982;7.032;2023-06-22T01:17:45;23.15;64.62
68177;DHT22;56478;50.982;7.032;2023-06-22T01:20:12;23.17;64.20
68177;DHT22;56478;50.982;7.032;2023-06-22T01:28:46;23.14;64.44
68177;DHT22;56478;50.982;7.032;2023-06-22T01:31:15;23.11;63.98
68177;DHT22;56478;50.982;7.032;2023-06-22T01:33:43;23.10;64.32
68177;DHT22;56478;50.982;7.032;2023-06-22T01:36:10;23.07;64.61
68177;DHT22;56478;50.982;7.032;2023-06-22T01:38:37;23.06;63.28
68177;DHT22;56478;50.982;7.032;2023-06-22T01:41:03;23.06;63.79
68177;DHT22;56478;50.982;7.032;2023-06-22T01:43:30;23.01;63.50
68177;DHT22;56478;50.982;7.032;2023-06-22T01:45:56;23.01;63.67
68177;DHT22;56478;50.982;7.032;2023-06-22T01:48:23;23.01;64.36
68177;DHT22;56478;50.982;7.032;2023-06-22T01:50:49;23.01;64.47
68177;DHT22;56478;50.982;7.032;2023-06-22T01:53:15;23.00;63.67
68177;DHT22;56478;50.982;7.032;2023-06-22T01:55:40;23.01;63.78
68177;DHT22;56478;50.982;7.032;2023-06-22T01:58:06;22.98;64.17
68177;DHT22;56478;50.982;7.032;2023-06-22T02:00:34;22.97;63.87
68177;DHT22;56478;50.982;7.032;2023-06-22T02:03:23;22.96;63.65
68177;DHT22;56478;50.982;7.032;2023-06-22T02:05:58;22.94;64.60
68177;DHT22;56478;50.982;7.032;2023-06-22T02:08:32;22.86;65.23
68177;DHT22;56478;50.982;7.032;2023-06-22T02:11:00;22.86;64.71
68177;DHT22;56478;50.982;7.032;2023-06-22T02:13:27;22.82;64.94
68177;DHT22;56478;50.982;7.032;2023-06-22T02:15:53;22.77;65.51
68177;DHT22;56478;50.982;7.032;2023-06-22T02:18:19;22.72;65.42
68177;DHT22;56478;50.982;7.032;2023-06-22T02:20:46;22.67;64.90
68177;DHT22;56478;50.982;7.032;2023-06-22T02:23:11;22.67;64.99
68177;DHT22;56478;50.982;7.032;2023-06-22T02:25:37;22.67;65.37
68177;DHT22;56478;50.982;7.032;2023-06-22T02:28:03;22.73;64.88
68177;DHT22;56478;50.982;7.032;2023-06-22T02:30:29;22.70;65.29
68177;DHT22;56478;50.982;7.032;2023-06-22T02:32:54;22.70;65.02
68177;DHT22;56478;50.982;7.032;2023-06-22T02:35:27;22.67;65.71
68177;DHT22;56478;50.982;7.032;2023-06-22T02:37:57;22.66;65.63
68177;DHT22;56478;50.982;7.032;2023-06-22T02:40:23;22.63;64.62
68177;DHT22;56478;50.982;7.032;2023-06-22T02:42:49;22.62;65.97
68177;DHT22;56478;50.982;7.032;2023-06-22T02:45:14;22.59;65.10
68177;DHT22;56478;50.982;7.032;2023-06-22T02:47:40;22.57;65.82
68177;DHT22;56478;50.982;7.032;2023-06-22T02:50:06;22.57;65.86
68177;DHT22;56478;50.982;7.032;2023-06-22T02:52:31;22.57;65.83
68177;DHT22;56478;50.982;7.032;2023-06-22T02:54:57;22.53;66.00
68177;DHT22;56478;50.982;7.032;2023-06-22T02:57:22;22.53;66.09
68177;DHT22;56478;50.982;7.032;2023-06-22T02:59:48;22.49;65.47
68177;DHT22;56478;50.982;7.032;2023-06-22T03:02:13;22.49;65.81
68177;DHT22;56478;50.982;7.032;2023-06-22T03:04:39;22.49;66.40
68177;DHT22;56478;50.982;7.032;2023-06-22T03:07:05;22.46;65.85
68177;DHT22;56478;50.982;7.032;2023-06-22T03:09:30;22.46;66.11
68177;DHT22;56478;50.982;7.032;2023-06-22T03:11:56;22.45;66.33
68177;DHT22;56478;50.982;7.032;2023-06-22T03:14:22;22.42;65.66
68177;DHT22;56478;50.982;7.032;2023-06-22T03:16:47;22.44;66.05
68177;DHT22;56478;50.982;7.032;2023-06-22T03:19:13;22.38;66.26
68177;DHT22;56478;50.982;7.032;2023-06-22T03:21:39;22.41;66.03
68177;DHT22;56478;50.982;7.032;2023-06-22T03:24:06;22.44;66.34
68177;DHT22;56478;50.982;7.032;2023-06-22T03:26:31;22.45;65.87
68177;DHT22;56478;50.982;7.032;2023-06-22T03:28:57;22.49;66.11
68177;DHT22;56478;50.982;7.032;2023-06-22T03:31:23;22.46;65.78
68177;DHT22;56478;50.982;7.032;2023-06-22T03:33:49;22.46;65.93
68177;DHT22;56478;50.982;7.032;2023-06-22T03:36:16;22.46;65.76
68177;DHT22;56478;50.982;7.032;2023-06-22T03:38:49;22.48;64.93
68177;DHT22;56478;50.982;7.032;2023-06-22T03:41:15;22.55;65.15
68177;DHT22;56478;50.982;7.032;2023-06-22T03:43:41;22.52;65.26
68177;DHT22;56478;50.982;7.032;2023-06-22T03:46:06;22.53;64.92
68177;DHT22;56478;50.982;7.032;2023-06-22T03:48:32;22.53;64.80
68177;DHT22;56478;50.982;7.032;2023-06-22T03:51:01;22.52;65.21
68177;DHT22;56478;50.982;7.032;2023-06-22T03:53:28;22.53;65.92
68177;DHT22;56478;50.982;7.032;2023-06-22T03:55:54;22.56;66.25
68177;DHT22;56478;50.982;7.032;2023-06-22T03:58:20;22.56;65.25
68177;DHT22;56478;50.982;7.032;2023-06-22T04:00:50;22.56;66.10
68177;DHT22;56478;50.982;7.032;2023-06-22T04:03:16;22.57;66.09
68177;DHT22;56478;50.982;7.032;2023-06-22T04:05:44;22.57;65.85
68177;DHT22;56478;50.982;7.032;2023-06-22T04:08:11;22.73;64.75
68177;DHT22;56478;50.982;7.032;2023-06-22T04:10:37;22.74;64.07
68177;DHT22;56478;50.982;7.032;2023-06-22T04:13:02;22.69;64.85
68177;DHT22;56478;50.982;7.032;2023-06-22T04:15:28;22.69;66.09
68177;DHT22;56478;50.982;7.032;2023-06-22T04:17:55;22.70;66.27
68177;DHT22;56478;50.982;7.032;2023-06-22T04:20:21;22.76;65.59
68177;DHT22;56478;50.982;7.032;2023-06-22T04:22:47;22.79;66.31
68177;DHT22;56478;50.982;7.032;2023-06-22T04:25:13;22.76;66.14
68177;DHT22;56478;50.982;7.032;2023-06-22T04:27:39;22.83;65.94
68177;DHT22;56478;50.982;7.032;2023-06-22T04:30:07;22.84;66.58
68177;DHT22;56478;50.982;7.032;2023-06-22T04:32:36;22.82;66.74
68177;DHT22;56478;50.982;7.032;2023-06-22T04:35:04;22.83;66.47
68177;DHT22;56478;50.982;7.032;2023-06-22T04:37:32;22.77;66.57
68177;DHT22;56478;50.982;7.032;2023-06-22T04:39:58;22.76;67.20
68177;DHT22;56478;50.982;7.032;2023-06-22T04:42:26;22.73;67.52
68177;DHT22;56478;50.982;7.032;2023-06-22T04:44:52;22.77;66.93
68177;DHT22;56478;50.982;7.032;2023-06-22T04:47:17;22.77;67.50
68177;DHT22;56478;50.982;7.032;2023-06-22T04:49:43;22.82;67.45
68177;DHT22;56478;50.982;7.032;2023-06-22T04:52:11;22.86;68.03
68177;DHT22;56478;50.982;7.032;2023-06-22T04:54:39;22.86;68.22
68177;DHT22;56478;50.982;7.032;2023-06-22T04:57:06;22.82;68.05
68177;DHT22;56478;50.982;7.032;2023-06-22T04:59:36;22.82;68.88
68177;DHT22;56478;50.982;7.032;2023-06-22T05:02:05;22.77;69.13
68177;DHT22;56478;50.982;7.032;2023-06-22T05:04:31;22.76;69.09
68177;DHT22;56478;50.982;7.032;2023-06-22T05:06:58;22.70;69.58
68177;DHT22;56478;50.982;7.032;2023-06-22T05:09:25;22.70;69.74
68177;DHT22;56478;50.982;7.032;2023-06-22T05:11:51;22.67;69.71
68177;DHT22;56478;50.982;7.032;2023-06-22T05:14:17;22.66;70.30
68177;DHT22;56478;50.982;7.032;2023-06-22T05:16:44;22.63;70.50
68177;DHT22;56478;50.982;7.032;2023-06-22T05:19:11;22.69;69.87
68177;DHT22;56478;50.982;7.032;2023-06-22T05:21:37;22.72;69.25
68177;DHT22;56478;50.982;7.032;2023-06-22T05:24:03;22.73;69.76
68177;DHT22;56478;50.982;7.032;2023-06-22T05:26:31;22.74;69.45
68177;DHT22;56478;50.982;7.032;2023-06-22T05:28:57;22.79;69.43
68177;DHT22;56478;50.982;7.032;2023-06-22T05:31:23;22.89;69.33
68177;DHT22;56478;50.982;7.032;2023-06-22T05:33:51;22.91;69.47
68177;DHT22;56478;50.982;7.032;2023-06-22T05:36:17;23.01;68.80
68177;DHT22;56478;50.982;7.032;2023-06-22T05:38:45;23.07;68.85
68177;DHT22;56478;50.982;7.032;2023-06-22T05:41:11;23.12;68.95
68177;DHT22;56478;50.982;7.032;2023-06-22T05:43:37;23.14;69.52
68177;DHT22;56478;50.982;7.032;2023-06-22T05:46:03;23.25;68.91
68177;DHT22;56478;50.982;7.032;2023-06-22T05:48:30;23.38;68.30
68177;DHT22;56478;50.982;7.032;2023-06-22T05:50:55;23.48;68.50
68177;DHT22;56478;50.982;7.032;2023-06-22T05:53:21;23.63;68.26
68177;DHT22;56478;50.982;7.032;2023-06-22T05:55:47;23.73;68.60
68177;DHT22;56478;50.982;7.032;2023-06-22T05:58:13;23.83;68.35
68177;DHT22;56478;50.982;7.032;2023-06-22T06:00:39;23.98;68.81
68177;DHT22;56478;50.982;7.032;2023-06-22T06:03:07;23.97;66.23
68177;DHT22;56478;50.982;7.032;2023-06-22T06:05:33;24.12;65.15
68177;DHT22;56478;50.982;7.032;2023-06-22T06:08:00;24.21;64.63
68177;DHT22;56478;50.982;7.032;2023-06-22T06:10:26;24.51;64.67
68177;DHT22;56478;50.982;7.032;2023-06-22T06:12:53;24.67;64.79
68177;DHT22;56478;50.982;7.032;2023-06-22T06:15:18;24.95;65.37
68177;DHT22;56478;50.982;7.032;2023-06-22T06:17:51;25.18;65.33
68177;DHT22;56478;50.982;7.032;2023-06-22T06:20:23;25.42;63.03
68177;DHT22;56478;50.982;7.032;2023-06-22T06:22:49;25.32;63.66
68177;DHT22;56478;50.982;7.032;2023-06-22T06:25:16;25.31;64.83
68177;DHT22;56478;50.982;7.032;2023-06-22T06:27:46;25.50;64.98
68177;DHT22;56478;50.982;7.032;2023-06-22T06:30:12;25.60;63.78
68177;DHT22;56478;50.982;7.032;2023-06-22T06:32:39;25.86;61.54
68177;DHT22;56478;50.982;7.032;2023-06-22T06:35:11;26.11;60.70
68177;DHT22;56478;50.982;7.032;2023-06-22T06:37:39;25.95;61.21
68177;DHT22;56478;50.982;7.032;2023-06-22T06:40:08;26.05;63.57
68177;DHT22;56478;50.982;7.032;2023-06-22T06:42:36;26.06;63.22
68177;DHT22;56478;50.982;7.032;2023-06-22T06:45:04;26.24;60.44
68177;DHT22;56478;50.982;7.032;2023-06-22T06:47:30;26.70;60.55
68177;DHT22;56478;50.982;7.032;2023-06-22T06:49:56;27.00;59.78
68177;DHT22;56478;50.982;7.032;2023-06-22T06:52:21;27.50;58.72
68177;DHT22;56478;50.982;7.032;2023-06-22T06:54:47;27.88;60.18
68177;DHT22;56478;50.982;7.032;2023-06-22T06:57:13;28.22;57.11
68177;DHT22;56478;50.982;7.032;2023-06-22T06:59:39;29.11;54.91
68177;DHT22;56478;50.982;7.032;2023-06-22T07:02:05;28.91;55.90
68177;DHT22;56478;50.982;7.032;2023-06-22T07:04:30;28.05;57.17
68177;DHT22;56478;50.982;7.032;2023-06-22T07:06:56;28.12;56.31
68177;DHT22;56478;50.982;7.032;2023-06-22T07:09:21;27.98;58.72
68177;DHT22;56478;50.982;7.032;2023-06-22T07:11:47;27.53;60.25
68177;DHT22;56478;50.982;7.032;2023-06-22T07:14:13;27.01;59.62
68177;DHT22;56478;50.982;7.032;2023-06-22T07:16:38;28.33;60.28
68177;DHT22;56478;50.982;7.032;2023-06-22T07:19:04;31.40;49.87
68177;DHT22;56478;50.982;7.032;2023-06-22T07:21:29;33.39;44.80
68177;DHT22;56478;50.982;7.032;2023-06-22T07:23:55;35.28;41.16
68177;DHT22;56478;50.982;7.032;2023-06-22T07:26:22;36.76;37.93
68177;DHT22;56478;50.982;7.032;2023-06-22T07:28:47;36.64;38.50
68177;DHT22;56478;50.982;7.032;2023-06-22T07:31:13;36.88;36.83
68177;DHT22;56478;50.982;7.032;2023-06-22T07:33:38;36.46;37.57
68177;DHT22;56478;50.982;7.032;2023-06-22T07:36:04;36.55;38.91
68177;DHT22;56478;50.982;7.032;2023-06-22T07:38:33;37.01;37.20
68177;DHT22;56478;50.982;7.032;2023-06-22T07:40:59;35.84;38.22
68177;DHT22;56478;50.982;7.032;2023-06-22T07:43:25;33.88;42.59
68177;DHT22;56478;50.982;7.032;2023-06-22T07:45:51;32.97;43.22
68177;DHT22;56478;50.982;7.032;2023-06-22T07:48:21;31.76;49.01
68177;DHT22;56478;50.982;7.032;2023-06-22T07:50:48;31.39;48.93
68177;DHT22;56478;50.982;7.032;2023-06-22T07:53:14;31.44;47.58
68177;DHT22;56478;50.982;7.032;2023-06-22T07:55:39;32.26;45.83
68177;DHT22;56478;50.982;7.032;2023-06-22T07:58:05;33.05;47.89
68177;DHT22;56478;50.982;7.032;2023-06-22T08:00:31;35.08;42.08
68177;DHT22;56478;50.982;7.032;2023-06-22T08:02:58;35.90;39.23
68177;DHT22;56478;50.982;7.032;2023-06-22T08:05:23;37.26;37.75
68177;DHT22;56478;50.982;7.032;2023-06-22T08:07:49;36.87;37.07
68177;DHT22;56478;50.982;7.032;2023-06-22T08:10:15;37.58;38.28
68177;DHT22;56478;50.982;7.032;2023-06-22T08:12:41;38.56;35.45
68177;DHT22;56478;50.982;7.032;2023-06-22T08:15:07;39.15;34.87
68177;DHT22;56478;50.982;7.032;2023-06-22T08:17:33;40.35;31.72
68177;DHT22;56478;50.982;7.032;2023-06-22T08:19:59;41.15;30.97
68177;DHT22;56478;50.982;7.032;2023-06-22T08:22:25;39.90;32.55
68177;DHT22;56478;50.982;7.032;2023-06-22T08:24:50;40.31;31.62
68177;DHT22;56478;50.982;7.032;2023-06-22T08:27:16;40.90;31.83
68177;DHT22;56478;50.982;7.032;2023-06-22T08:29:44;41.73;30.33
68177;DHT22;56478;50.982;7.032;2023-06-22T08:32:11;43.35;28.00
68177;DHT22;56478;50.982;7.032;2023-06-22T08:34:37;43.63;27.75
68177;DHT22;56478;50.982;7.032;2023-06-22T08:37:08;42.58;29.77
68177;DHT22;56478;50.982;7.032;2023-06-22T08:39:34;42.77;28.92
68177;DHT22;56478;50.982;7.032;2023-06-22T08:41:59;43.18;28.01
68177;DHT22;56478;50.982;7.032;2023-06-22T08:44:25;41.65;30.09
68177;DHT22;56478;50.982;7.032;2023-06-22T08:46:51;42.14;29.89
68177;DHT22;56478;50.982;7.032;2023-06-22T08:49:16;43.25;28.65
68177;DHT22;56478;50.982;7.032;2023-06-22T08:51:42;42.20;29.51
68177;DHT22;56478;50.982;7.032;2023-06-22T08:54:09;39.69;34.81
68177;DHT22;56478;50.982;7.032;2023-06-22T08:56:35;37.31;37.35
68177;DHT22;56478;50.982;7.032;2023-06-22T08:59:01;37.26;37.88
68177;DHT22;56478;50.982;7.032;2023-06-22T09:01:27;36.21;39.07
68177;DHT22;56478;50.982;7.032;2023-06-22T09:03:53;35.36;41.29
68177;DHT22;56478;50.982;7.032;2023-06-22T09:06:23;35.31;39.81
68177;DHT22;56478;50.982;7.032;2023-06-22T09:08:50;35.12;40.08
68177;DHT22;56478;50.982;7.032;2023-06-22T09:11:15;35.11;41.85
68177;DHT22;56478;50.982;7.032;2023-06-22T09:13:41;35.35;40.11
68177;DHT22;56478;50.982;7.032;2023-06-22T09:16:07;35.67;37.73
68177;DHT22;56478;50.982;7.032;2023-06-22T09:18:36;35.66;37.91
68177;DHT22;56478;50.982;7.032;2023-06-22T09:21:02;34.99;40.75
68177;DHT22;56478;50.982;7.032;2023-06-22T09:23:27;34.87;41.01
68177;DHT22;56478;50.982;7.032;2023-06-22T09:25:53;34.83;40.47
68177;DHT22;56478;50.982;7.032;2023-06-22T09:28:18;34.87;39.46
68177;DHT22;56478;50.982;7.032;2023-06-22T09:30:44;34.66;39.83
68177;DHT22;56478;50.982;7.032;2023-06-22T09:33:11;33.64;43.70
68177;DHT22;56478;50.982;7.032;2023-06-22T09:35:37;33.56;42.09
68177;DHT22;56478;50.982;7.032;2023-06-22T09:38:02;33.39;45.13
68177;DHT22;56478;50.982;7.032;2023-06-22T09:40:28;33.29;44.14
68177;DHT22;56478;50.982;7.032;2023-06-22T09:42:53;33.36;44.98
68177;DHT22;56478;50.982;7.032;2023-06-22T09:45:19;33.84;43.04
68177;DHT22;56478;50.982;7.032;2023-06-22T09:47:45;34.68;42.43
68177;DHT22;56478;50.982;7.032;2023-06-22T09:50:10;35.46;40.93
68177;DHT22;56478;50.982;7.032;2023-06-22T09:52:36;36.40;38.40
68177;DHT22;56478;50.982;7.032;2023-06-22T09:55:02;35.98;39.13
68177;DHT22;56478;50.982;7.032;2023-06-22T09:57:29;35.16;41.14
68177;DHT22;56478;50.982;7.032;2023-06-22T09:59:55;34.04;42.11
68177;DHT22;56478;50.982;7.032;2023-06-22T10:02:21;33.42;41.51
68177;DHT22;56478;50.982;7.032;2023-06-22T10:04:47;32.37;46.61
68177;DHT22;56478;50.982;7.032;2023-06-22T10:07:13;31.42;50.65
68177;DHT22;56478;50.982;7.032;2023-06-22T10:09:39;31.14;50.53
68177;DHT22;56478;50.982;7.032;2023-06-22T10:12:05;30.84;51.57
68177;DHT22;56478;50.982;7.032;2023-06-22T10:14:30;30.83;48.37
68177;DHT22;56478;50.982;7.032;2023-06-22T10:16:56;30.46;50.47
68177;DHT22;56478;50.982;7.032;2023-06-22T10:19:22;30.43;48.56
68177;DHT22;56478;50.982;7.032;2023-06-22T10:21:47;29.85;50.74
68177;DHT22;56478;50.982;7.032;2023-06-22T10:24:13;29.54;53.13
68177;DHT22;56478;50.982;7.032;2023-06-22T10:26:38;29.32;56.40
68177;DHT22;56478;50.982;7.032;2023-06-22T10:29:04;29.30;54.63
68177;DHT22;56478;50.982;7.032;2023-06-22T10:31:30;29.09;55.83
68177;DHT22;56478;50.982;7.032;2023-06-22T10:33:55;28.80;57.03
68177;DHT22;56478;50.982;7.032;2023-06-22T10:36:22;28.74;62.36
68177;DHT22;56478;50.982;7.032;2023-06-22T10:38:48;28.39;65.59
68177;DHT22;56478;50.982;7.032;2023-06-22T10:41:14;27.91;69.12
68177;DHT22;56478;50.982;7.032;2023-06-22T10:43:41;27.60;71.27
68177;DHT22;56478;50.982;7.032;2023-06-22T10:46:07;27.24;72.67
68177;DHT22;56478;50.982;7.032;2023-06-22T10:48:33;26.97;74.15
68177;DHT22;56478;50.982;7.032;2023-06-22T10:50:59;26.83;74.88
68177;DHT22;56478;50.982;7.032;2023-06-22T10:53:24;26.70;76.02
68177;DHT22;56478;50.982;7.032;2023-06-22T10:55:50;26.63;75.86
68177;DHT22;56478;50.982;7.032;2023-06-22T10:58:18;26.52;76.08
68177;DHT22;56478;50.982;7.032;2023-06-22T11:00:44;26.43;76.34
68177;DHT22;56478;50.982;7.032;2023-06-22T11:03:10;26.29;76.66
68177;DHT22;56478;50.982;7.032;2023-06-22T11:05:36;26.12;77.49
68177;DHT22;56478;50.982;7.032;2023-06-22T11:08:01;26.04;77.06
68177;DHT22;56478;50.982;7.032;2023-06-22T11:10:27;25.94;77.78
68177;DHT22;56478;50.982;7.032;2023-06-22T11:12:53;25.81;78.23
68177;DHT22;56478;50.982;7.032;2023-06-22T11:15:18;25.73;78.03
68177;DHT22;56478;50.982;7.032;2023-06-22T11:17:44;25.77;78.68
68177;DHT22;56478;50.982;7.032;2023-06-22T11:20:11;25.73;78.20
68177;DHT22;56478;50.982;7.032;2023-06-22T11:22:38;25.73;79.00
68177;DHT22;56478;50.982;7.032;2023-06-22T11:25:05;25.70;79.81
68177;DHT22;56478;50.982;7.032;2023-06-22T11:27:31;25.66;80.56
68177;DHT22;56478;50.982;7.032;2023-06-22T11:29:57;25.86;80.05
68177;DHT22;56478;50.982;7.032;2023-06-22T11:32:23;25.93;79.60
68177;DHT22;56478;50.982;7.032;2023-06-22T11:34:48;26.02;80.66
68177;DHT22;56478;50.982;7.032;2023-06-22T11:37:14;26.21;79.51
68177;DHT22;56478;50.982;7.032;2023-06-22T11:39:41;26.24;79.58
68177;DHT22;56478;50.982;7.032;2023-06-22T11:42:07;26.17;79.39
68177;DHT22;56478;50.982;7.032;2023-06-22T11:44:33;26.15;79.16
68177;DHT22;56478;50.982;7.032;2023-06-22T11:46:59;26.01;79.71
68177;DHT22;56478;50.982;7.032;2023-06-22T11:49:26;26.08;79.17
68177;DHT22;56478;50.982;7.032;2023-06-22T11:51:53;26.21;78.77
68177;DHT22;56478;50.982;7.032;2023-06-22T11:54:18;26.40;77.68
68177;DHT22;56478;50.982;7.032;2023-06-22T11:56:44;26.56;77.57
68177;DHT22;56478;50.982;7.032;2023-06-22T11:59:10;27.05;76.64
68177;DHT22;56478;50.982;7.032;2023-06-22T12:01:35;27.56;75.34
68177;DHT22;56478;50.982;7.032;2023-06-22T12:04:01;28.02;74.26
68177;DHT22;56478;50.982;7.032;2023-06-22T12:06:31;28.45;73.79
68177;DHT22;56478;50.982;7.032;2023-06-22T12:08:58;28.77;74.42
68177;DHT22;56478;50.982;7.032;2023-06-22T12:11:23;28.95;75.34
68177;DHT22;56478;50.982;7.032;2023-06-22T12:13:49;29.02;69.18
68177;DHT22;56478;50.982;7.032;2023-06-22T12:16:15;28.90;68.66
68177;DHT22;56478;50.982;7.032;2023-06-22T12:18:40;28.60;71.16
68177;DHT22;56478;50.982;7.032;2023-06-22T12:21:07;28.29;71.40
68177;DHT22;56478;50.982;7.032;2023-06-22T12:23:33;27.90;72.73
68177;DHT22;56478;50.982;7.032;2023-06-22T12:25:58;27.64;73.62
68177;DHT22;56478;50.982;7.032;2023-06-22T12:28:25;27.36;73.68
68177;DHT22;56478;50.982;7.032;2023-06-22T12:30:51;27.43;72.96
68177;DHT22;56478;50.982;7.032;2023-06-22T12:33:16;27.29;73.52
68177;DHT22;56478;50.982;7.032;2023-06-22T12:35:43;27.25;75.05
68177;DHT22;56478;50.982;7.032;2023-06-22T12:38:10;27.52;72.78
68177;DHT22;56478;50.982;7.032;2023-06-22T12:40:36;27.74;73.67
68177;DHT22;56478;50.982;7.032;2023-06-22T12:43:02;27.93;74.88
68177;DHT22;56478;50.982;7.032;2023-06-22T12:45:28;28.31;73.13
68177;DHT22;56478;50.982;7.032;2023-06-22T12:47:57;28.21;73.35
68177;DHT22;56478;50.982;7.032;2023-06-22T12:50:22;28.40;69.54
68177;DHT22;56478;50.982;7.032;2023-06-22T12:52:48;28.60;72.45
68177;DHT22;56478;50.982;7.032;2023-06-22T12:55:14;28.75;68.91
68177;DHT22;56478;50.982;7.032;2023-06-22T12:57:39;28.63;70.88
68177;DHT22;56478;50.982;7.032;2023-06-22T13:00:05;28.49;72.77
68177;DHT22;56478;50.982;7.032;2023-06-22T13:02:33;28.63;74.46
68177;DHT22;56478;50.982;7.032;2023-06-22T13:04:59;28.81;71.49
68177;DHT22;56478;50.982;7.032;2023-06-22T13:07:24;29.18;70.49
68177;DHT22;56478;50.982;7.032;2023-06-22T13:09:50;29.12;69.18
68177;DHT22;56478;50.982;7.032;2023-06-22T13:12:17;29.20;68.78
68177;DHT22;56478;50.982;7.032;2023-06-22T13:14:42;29.15;69.61
68177;DHT22;56478;50.982;7.032;2023-06-22T13:17:09;28.95;70.91
68177;DHT22;56478;50.982;7.032;2023-06-22T13:19:34;28.91;70.65
68177;DHT22;56478;50.982;7.032;2023-06-22T13:22:00;28.77;68.65
68177;DHT22;56478;50.982;7.032;2023-06-22T13:24:26;28.70;68.24
68177;DHT22;56478;50.982;7.032;2023-06-22T13:26:51;28.94;69.49
68177;DHT22;56478;50.982;7.032;2023-06-22T13:29:17;28.70;67.70
68177;DHT22;56478;50.982;7.032;2023-06-22T13:31:43;29.00;65.79
68177;DHT22;56478;50.982;7.032;2023-06-22T13:34:08;28.98;65.62
68177;DHT22;56478;50.982;7.032;2023-06-22T13:36:34;28.87;67.48
68177;DHT22;56478;50.982;7.032;2023-06-22T13:38:59;29.02;66.41
68177;DHT22;56478;50.982;7.032;2023-06-22T13:41:25;28.88;67.97
68177;DHT22;56478;50.982;7.032;2023-06-22T13:43:51;28.90;67.64
68177;DHT22;56478;50.982;7.032;2023-06-22T13:46:17;29.00;66.84
68177;DHT22;56478;50.982;7.032;2023-06-22T13:48:43;29.04;67.03
68177;DHT22;56478;50.982;7.032;2023-06-22T13:51:08;29.11;63.61
68177;DHT22;56478;50.982;7.032;2023-06-22T13:53:34;29.22;65.20
68177;DHT22;56478;50.982;7.032;2023-06-22T13:56:00;29.43;62.33
68177;DHT22;56478;50.982;7.032;2023-06-22T13:58:25;29.33;64.06
68177;DHT22;56478;50.982;7.032;2023-06-22T14:00:51;29.23;64.96
68177;DHT22;56478;50.982;7.032;2023-06-22T14:03:17;28.98;63.01
68177;DHT22;56478;50.982;7.032;2023-06-22T14:05:43;29.01;66.02
68177;DHT22;56478;50.982;7.032;2023-06-22T14:08:09;29.18;65.54
68177;DHT22;56478;50.982;7.032;2023-06-22T14:10:35;29.30;60.87
68177;DHT22;56478;50.982;7.032;2023-06-22T14:13:00;29.45;60.41
68177;DHT22;56478;50.982;7.032;2023-06-22T14:15:26;29.49;60.21
68177;DHT22;56478;50.982;7.032;2023-06-22T14:17:52;29.08;63.93
68177;DHT22;56478;50.982;7.032;2023-06-22T14:20:18;29.20;64.56
68177;DHT22;56478;50.982;7.032;2023-06-22T14:22:44;28.97;64.66
68177;DHT22;56478;50.982;7.032;2023-06-22T14:25:09;28.75;63.94
68177;DHT22;56478;50.982;7.032;2023-06-22T14:27:35;28.57;64.60
68177;DHT22;56478;50.982;7.032;2023-06-22T14:30:01;28.57;66.40
68177;DHT22;56478;50.982;7.032;2023-06-22T14:32:28;28.46;63.96
68177;DHT22;56478;50.982;7.032;2023-06-22T14:34:55;28.33;65.49
68177;DHT22;56478;50.982;7.032;2023-06-22T14:37:21;28.23;66.43
68177;DHT22;56478;50.982;7.032;2023-06-22T14:39:46;28.06;64.37
68177;DHT22;56478;50.982;7.032;2023-06-22T14:42:12;27.97;66.28
68177;DHT22;56478;50.982;7.032;2023-06-22T14:44:38;27.73;70.86
68177;DHT22;56478;50.982;7.032;2023-06-22T14:47:04;27.43;71.17
68177;DHT22;56478;50.982;7.032;2023-06-22T14:49:29;27.29;73.24
68177;DHT22;56478;50.982;7.032;2023-06-22T14:51:55;27.12;73.61
68177;DHT22;56478;50.982;7.032;2023-06-22T14:54:21;26.87;75.43
68177;DHT22;56478;50.982;7.032;2023-06-22T14:56:48;26.67;75.19
68177;DHT22;56478;50.982;7.032;2023-06-22T14:59:13;26.49;76.32
68177;DHT22;56478;50.982;7.032;2023-06-22T15:01:39;26.08;77.53
68177;DHT22;56478;50.982;7.032;2023-06-22T15:04:05;25.78;79.80
68177;DHT22;56478;50.982;7.032;2023-06-22T15:06:31;25.71;80.00
68177;DHT22;56478;50.982;7.032;2023-06-22T15:08:56;25.31;80.00
68177;DHT22;56478;50.982;7.032;2023-06-22T15:11:22;25.15;81.42
68177;DHT22;56478;50.982;7.032;2023-06-22T15:13:48;25.10;80.86
68177;DHT22;56478;50.982;7.032;2023-06-22T15:16:14;24.95;81.34
68177;DHT22;56478;50.982;7.032;2023-06-22T15:18:39;24.97;82.13
68177;DHT22;56478;50.982;7.032;2023-06-22T15:21:06;24.88;82.12
68177;DHT22;56478;50.982;7.032;2023-06-22T15:23:33;24.83;83.00
68177;DHT22;56478;50.982;7.032;2023-06-22T15:26:02;24.83;82.17
68177;DHT22;56478;50.982;7.032;2023-06-22T15:28:30;24.55;82.74
68177;DHT22;56478;50.982;7.032;2023-06-22T15:30:57;24.53;82.87
68177;DHT22;56478;50.982;7.032;2023-06-22T15:33:24;24.53;83.42
68177;DHT22;56478;50.982;7.032;2023-06-22T15:35:50;24.43;82.38